Terminal Aerodrome Forecast
Issued by NWS

Home | Current Version | Previous Version | Text Only | Print | Product List | Glossary Off
Versions: 1 2 3 4 5 6 7 8 9 10 11 12 13 14 15

000
FTUS43 KIWX 180500
TAFSBN
TAF
KSBN 180535Z 1806/1906 24017G24KT 1SM -SN BLSN BR OVC012
      TEMPO 1806/1810 1/2SM SN BLSN VV008
     FM181300 26016G26KT 2SM -SHSN BLSN OVC015
     FM181700 25017G26KT P6SM -SHSN BKN035
     FM182300 23010KT P6SM BKN050=

USA.gov is the U.S. government's official web portal to all federal, state and local government web resources and services.